createdAt,value
2022-11-16T00:01:20.027Z,94583.69
2022-11-16T00:03:46.681Z,94576.97
2022-11-16T00:06:14.690Z,94566.25
2022-11-16T00:08:44.010Z,94555.47
2022-11-16T00:11:14.552Z,94555.34
2022-11-16T00:13:42.965Z,94543.84
2022-11-16T00:16:17.952Z,94543.84
2022-11-16T00:18:44.922Z,94544.66
2022-11-16T00:21:11.594Z,94525.66
2022-11-16T00:23:38.975Z,94509.66
2022-11-16T00:26:10.042Z,94513.75
2022-11-16T00:28:36.904Z,94500.25
2022-11-16T00:31:05.807Z,94505.09
2022-11-16T00:33:33.326Z,94509.06
2022-11-16T00:36:05.202Z,94508.16
2022-11-16T00:38:32.262Z,94510.50
2022-11-16T00:40:58.995Z,94502.66
2022-11-16T00:43:25.952Z,94509.16
2022-11-16T00:45:52.866Z,94512.22
2022-11-16T00:48:19.800Z,94502.28
2022-11-16T00:50:47.088Z,94513.50
2022-11-16T00:53:16.608Z,94504.06
2022-11-16T00:55:44.400Z,94515.59
2022-11-16T00:58:11.750Z,94522.09
2022-11-16T01:00:41.500Z,94530.28
2022-11-16T01:03:08.295Z,94535.25
2022-11-16T01:05:35.000Z,94529.78
2022-11-16T01:08:01.796Z,94526.81
2022-11-16T01:10:30.174Z,94531.09
2022-11-16T01:12:56.745Z,94517.53
2022-11-16T01:15:26.710Z,94515.41
2022-11-16T01:17:54.957Z,94513.84
2022-11-16T01:20:27.324Z,94504.03
2022-11-16T01:22:54.333Z,94499.91
2022-11-16T01:25:21.264Z,94491.56
2022-11-16T01:27:48.026Z,94491.91
2022-11-16T01:30:29.334Z,94489.56
2022-11-16T01:33:01.289Z,94489.28
2022-11-16T01:35:27.912Z,94491.72
2022-11-16T01:37:54.491Z,94495.13
2022-11-16T01:40:21.086Z,94496.41
2022-11-16T01:42:48.164Z,94486.97
2022-11-16T01:45:37.957Z,94475.47
2022-11-16T01:48:09.617Z,94486.75
2022-11-16T01:50:37.040Z,94483.09
2022-11-16T01:53:07.352Z,94479.81
2022-11-16T01:55:54.306Z,94480.47
2022-11-16T01:58:32.852Z,94483.59
2022-11-16T02:01:20.161Z,94479.47
2022-11-16T02:03:52.156Z,94484.31
2022-11-16T02:06:28.155Z,94484.69
2022-11-16T02:09:34.173Z,94485.69
2022-11-16T02:12:16.822Z,94482.81
2022-11-16T02:15:08.386Z,94483.97
2022-11-16T02:18:00.276Z,94478.94
2022-11-16T02:20:45.362Z,94477.72
2022-11-16T02:23:39.332Z,94480.47
2022-11-16T02:26:14.894Z,94482.91
2022-11-16T02:29:00.150Z,94475.59
2022-11-16T02:31:37.586Z,94469.66
2022-11-16T02:34:09.942Z,94469.81
2022-11-16T02:36:41.564Z,94471.00
2022-11-16T02:39:14.685Z,94467.34
2022-11-16T02:41:44.147Z,94473.78
2022-11-16T02:44:22.687Z,94477.69
2022-11-16T02:46:55.666Z,94475.66
2022-11-16T02:49:25.642Z,94473.91
2022-11-16T02:51:54.360Z,94478.19
2022-11-16T02:54:22.574Z,94480.81
2022-11-16T02:57:04.225Z,94470.94
2022-11-16T02:59:41.615Z,94479.69
2022-11-16T03:02:24.178Z,94475.84
2022-11-16T03:04:57.521Z,94461.38
2022-11-16T03:07:30.607Z,94459.97
2022-11-16T03:09:59.368Z,94453.56
2022-11-16T03:12:31.136Z,94450.03
2022-11-16T03:15:06.015Z,94439.50
2022-11-16T03:17:32.581Z,94434.13
2022-11-16T03:20:04.825Z,94423.88
2022-11-16T03:22:41.628Z,94413.59
2022-11-16T03:25:11.663Z,94412.25
2022-11-16T03:27:45.003Z,94421.00
2022-11-16T03:30:17.365Z,94424.47
2022-11-16T03:33:06.209Z,94432.91
2022-11-16T03:35:49.310Z,94447.28
2022-11-16T03:38:19.621Z,94452.69
2022-11-16T03:40:47.699Z,94456.22
2022-11-16T03:43:17.425Z,94453.00
2022-11-16T03:45:45.623Z,94456.00
2022-11-16T03:48:12.873Z,94454.16
2022-11-16T03:50:41.165Z,94456.72
2022-11-16T03:53:09.350Z,94464.78
2022-11-16T03:55:37.713Z,94473.31
2022-11-16T03:58:04.813Z,94477.34
2022-11-16T04:00:32.786Z,94479.75
2022-11-16T04:03:06.639Z,94483.25
2022-11-16T04:05:51.838Z,94481.06
2022-11-16T04:08:37.305Z,94475.63
2022-11-16T04:11:23.814Z,94476.13
2022-11-16T04:14:10.818Z,94475.72
2022-11-16T04:17:00.216Z,94489.63
2022-11-16T04:19:45.503Z,94482.91
2022-11-16T04:22:46.801Z,94500.06
2022-11-16T04:25:22.237Z,94496.34
2022-11-16T04:28:07.937Z,94502.00
2022-11-16T04:30:54.584Z,94496.44
2022-11-16T04:33:39.660Z,94495.44
2022-11-16T04:36:25.477Z,94499.81
2022-11-16T04:38:52.073Z,94499.56
2022-11-16T04:41:37.341Z,94494.50
2022-11-16T04:44:04.006Z,94496.34
2022-11-16T04:46:49.420Z,94495.31
2022-11-16T04:49:16.028Z,94502.06
2022-11-16T04:51:43.601Z,94497.72
2022-11-16T04:54:10.238Z,94504.00
2022-11-16T04:56:37.817Z,94500.19
2022-11-16T04:59:04.623Z,94506.75
2022-11-16T05:01:50.078Z,94506.94
2022-11-16T05:04:17.164Z,94509.34
2022-11-16T05:06:43.986Z,94515.25
2022-11-16T05:09:10.731Z,94512.97
2022-11-16T05:11:37.336Z,94507.88
2022-11-16T05:14:05.232Z,94513.22
2022-11-16T05:16:33.572Z,94521.56
2022-11-16T05:19:18.963Z,94514.56
2022-11-16T05:21:45.676Z,94517.25
2022-11-16T05:24:30.908Z,94513.47
2022-11-16T05:27:01.108Z,94511.63
2022-11-16T05:29:27.988Z,94512.47
2022-11-16T05:31:54.662Z,94513.81
2022-11-16T05:34:25.569Z,94511.97
2022-11-16T05:36:52.553Z,94507.00
2022-11-16T05:39:19.602Z,94501.72
2022-11-16T05:41:49.275Z,94502.56
2022-11-16T05:44:16.577Z,94500.88
2022-11-16T05:46:45.094Z,94505.94
2022-11-16T05:49:13.839Z,94504.75
2022-11-16T05:51:43.153Z,94501.13
2022-11-16T05:54:12.801Z,94504.59
2022-11-16T05:56:39.872Z,94510.78
2022-11-16T05:59:07.862Z,94511.69
2022-11-16T06:01:35.894Z,94515.59
2022-11-16T06:04:03.333Z,94511.13
2022-11-16T06:06:32.516Z,94499.97
2022-11-16T06:09:00.019Z,94508.78
2022-11-16T06:11:31.365Z,94506.19
2022-11-16T06:14:01.034Z,94513.50
2022-11-16T06:16:27.624Z,94511.44
2022-11-16T06:18:54.367Z,94515.59
2022-11-16T06:21:21.044Z,94508.03
2022-11-16T06:23:48.520Z,94507.09
2022-11-16T06:26:15.219Z,94510.28
2022-11-16T06:28:44.882Z,94519.88
2022-11-16T06:31:12.124Z,94518.06
2022-11-16T06:33:41.666Z,94519.44
2022-11-16T06:36:19.389Z,94520.28
2022-11-16T06:38:46.476Z,94527.06
2022-11-16T06:41:13.535Z,94528.44
2022-11-16T06:43:44.534Z,94533.19
2022-11-16T06:46:11.429Z,94533.53
2022-11-16T06:48:39.587Z,94537.56
2022-11-16T06:51:10.677Z,94536.47
2022-11-16T06:53:37.342Z,94545.06
2022-11-16T06:56:06.378Z,94546.22
2022-11-16T06:58:39.938Z,94548.88
2022-11-16T07:01:11.488Z,94543.25
2022-11-16T07:03:40.474Z,94548.34
2022-11-16T07:06:10.542Z,94558.91
2022-11-16T07:08:39.904Z,94559.03
2022-11-16T07:11:09.862Z,94557.69
2022-11-16T07:13:37.970Z,94559.00
2022-11-16T07:16:07.688Z,94566.06
2022-11-16T07:18:37.024Z,94571.13
2022-11-16T07:21:12.845Z,94581.22
2022-11-16T07:23:39.963Z,94576.34
2022-11-16T07:26:10.417Z,94580.72
2022-11-16T07:28:47.938Z,94586.75
2022-11-16T07:31:18.203Z,94589.00
2022-11-16T07:33:46.019Z,94599.94
2022-11-16T07:36:40.112Z,94600.72
2022-11-16T07:39:10.172Z,94603.41
2022-11-16T07:41:42.519Z,94599.59
2022-11-16T07:44:16.809Z,94591.47
2022-11-16T07:46:46.996Z,94602.31
2022-11-16T07:49:17.186Z,94592.97
2022-11-16T07:52:00.167Z,94593.53
2022-11-16T07:54:49.897Z,94595.13
2022-11-16T07:57:16.694Z,94595.19
2022-11-16T07:59:43.929Z,94591.28
2022-11-16T08:02:11.579Z,94594.22
2022-11-16T08:04:40.388Z,94601.78
2022-11-16T08:07:08.531Z,94586.84
2022-11-16T08:09:41.227Z,94594.22
2022-11-16T08:12:11.820Z,94600.88
2022-11-16T08:14:39.815Z,94605.28
2022-11-16T08:17:08.332Z,94598.66
2022-11-16T08:19:36.640Z,94592.03
2022-11-16T08:22:03.820Z,94605.16
2022-11-16T08:24:32.777Z,94609.78
2022-11-16T08:26:59.491Z,94609.59
2022-11-16T08:29:27.039Z,94600.44
2022-11-16T08:31:56.090Z,94607.25
2022-11-16T08:34:23.221Z,94606.78
2022-11-16T08:36:56.177Z,94607.38
2022-11-16T08:39:29.144Z,94599.66
2022-11-16T08:41:55.806Z,94608.53
2022-11-16T08:44:22.910Z,94601.69
2022-11-16T08:46:52.599Z,94606.44
2022-11-16T08:49:48.180Z,94606.31
2022-11-16T08:52:16.629Z,94610.00
2022-11-16T08:54:43.872Z,94610.72
2022-11-16T08:57:11.120Z,94616.94
2022-11-16T08:59:39.578Z,94619.84
2022-11-16T09:02:10.643Z,94615.16
2022-11-16T09:04:37.522Z,94606.84
2022-11-16T09:07:04.520Z,94628.94
2022-11-16T09:09:31.226Z,94628.88
2022-11-16T09:11:57.785Z,94621.47
2022-11-16T09:14:28.981Z,94623.25
2022-11-16T09:16:55.585Z,94618.28
2022-11-16T09:19:22.404Z,94623.66
2022-11-16T09:21:48.995Z,94630.81
2022-11-16T09:24:15.799Z,94628.81
2022-11-16T09:26:42.395Z,94621.31
2022-11-16T09:29:14.119Z,94628.72
2022-11-16T09:31:41.782Z,94626.56
2022-11-16T09:34:11.999Z,94625.78
2022-11-16T09:36:38.640Z,94623.69
2022-11-16T09:42:13.918Z,94632.53
2022-11-16T09:45:08.952Z,94628.66
2022-11-16T09:47:42.964Z,94620.53
2022-11-16T09:50:30.035Z,94628.09
2022-11-16T09:53:06.126Z,94619.53
2022-11-16T09:55:38.014Z,94623.84
2022-11-16T09:58:14.679Z,94624.53
2022-11-16T10:00:53.132Z,94616.00
2022-11-16T10:03:19.789Z,94623.44
2022-11-16T10:06:05.007Z,94617.69
2022-11-16T10:08:48.925Z,94613.03
2022-11-16T10:11:36.114Z,94618.41
2022-11-16T10:14:26.102Z,94612.94
2022-11-16T10:16:55.684Z,94615.22
2022-11-16T10:19:43.276Z,94604.44
2022-11-16T10:22:32.236Z,94603.63
2022-11-16T10:25:42.070Z,94603.63
2022-11-16T10:28:40.157Z,94597.00
2022-11-16T10:31:22.150Z,94606.78
2022-11-16T10:33:54.104Z,94589.34
2022-11-16T10:36:22.350Z,94586.34
2022-11-16T10:38:48.970Z,94591.56
2022-11-16T10:41:20.195Z,94589.72
2022-11-16T10:43:48.231Z,94588.69
2022-11-16T10:46:24.251Z,94583.16
2022-11-16T10:49:29.219Z,94578.94
2022-11-16T10:51:56.073Z,94585.00
2022-11-16T10:54:22.776Z,94574.19
2022-11-16T10:56:58.036Z,94575.13
2022-11-16T10:59:41.768Z,94575.88
2022-11-16T11:02:26.831Z,94581.47
2022-11-16T11:05:08.198Z,94577.03
2022-11-16T11:07:39.859Z,94577.78
2022-11-16T11:10:28.077Z,94572.13
2022-11-16T11:13:26.731Z,94580.22
2022-11-16T11:16:16.409Z,94576.16
2022-11-16T11:18:43.222Z,94577.28
2022-11-16T11:21:21.244Z,94571.03
2022-11-16T11:23:51.299Z,94572.56
2022-11-16T11:26:40.093Z,94570.31
2022-11-16T11:29:20.808Z,94576.84
2022-11-16T11:31:52.204Z,94571.06
2022-11-16T11:34:23.876Z,94569.34
2022-11-16T11:37:00.314Z,94572.16
2022-11-16T11:39:34.801Z,94575.22
2022-11-16T11:42:13.823Z,94578.16
2022-11-16T11:44:49.777Z,94575.13
2022-11-16T11:47:59.989Z,94574.63
2022-11-16T11:50:34.102Z,94578.66
2022-11-16T11:53:22.366Z,94586.69
2022-11-16T11:55:54.908Z,94582.41
2022-11-16T11:58:31.700Z,94581.09
2022-11-16T12:01:25.558Z,94580.28
2022-11-16T12:04:19.976Z,94574.66
2022-11-16T12:06:55.768Z,94566.47
2022-11-16T12:09:31.774Z,94565.84
2022-11-16T12:12:18.831Z,94571.63
2022-11-16T12:14:49.369Z,94568.94
2022-11-16T12:17:35.728Z,94567.28
2022-11-16T12:20:11.554Z,94562.34
2022-11-16T12:22:48.738Z,94552.53
2022-11-16T12:25:25.140Z,94558.44
2022-11-16T12:28:25.055Z,94559.38
2022-11-16T12:31:14.137Z,94557.88
2022-11-16T12:34:01.977Z,94559.75
2022-11-16T12:37:08.109Z,94557.13
2022-11-16T12:39:45.512Z,94564.03
2022-11-16T12:42:22.334Z,94558.25
2022-11-16T12:45:06.198Z,94552.66
2022-11-16T12:48:03.612Z,94549.84
2022-11-16T12:51:05.054Z,94541.84
2022-11-16T12:53:56.194Z,94542.41
2022-11-16T12:56:38.501Z,94538.13
2022-11-16T12:59:26.481Z,94534.19
2022-11-16T13:02:00.579Z,94534.97
2022-11-16T13:04:37.254Z,94534.97
2022-11-16T13:07:20.136Z,94540.84
2022-11-16T13:09:51.209Z,94531.88
2022-11-16T13:12:23.303Z,94534.97
2022-11-16T13:14:52.821Z,94529.38
2022-11-16T13:17:22.903Z,94525.44
2022-11-16T13:20:25.817Z,94530.59
2022-11-16T13:23:18.529Z,94523.38
2022-11-16T13:26:19.008Z,94525.91
2022-11-16T13:29:01.301Z,94520.31
2022-11-16T13:31:38.405Z,94515.38
2022-11-16T13:34:18.458Z,94512.19
2022-11-16T13:36:47.663Z,94512.19
2022-11-16T13:39:22.681Z,94508.09
2022-11-16T13:42:07.445Z,94506.13
2022-11-16T13:44:34.727Z,94508.28
2022-11-16T13:47:04.876Z,94498.72
2022-11-16T13:49:41.796Z,94498.13
2022-11-16T13:52:23.300Z,94497.38
2022-11-16T13:54:54.164Z,94495.75
2022-11-16T13:57:25.250Z,94497.41
2022-11-16T14:00:20.465Z,94496.19
2022-11-16T14:02:47.392Z,94488.94
2022-11-16T14:05:35.514Z,94482.38
2022-11-16T14:08:20.632Z,94488.50
2022-11-16T14:10:50.244Z,94498.03
2022-11-16T14:13:36.157Z,94491.91
2022-11-16T14:16:14.939Z,94485.16
2022-11-16T14:18:43.652Z,94482.34
2022-11-16T14:21:19.368Z,94483.03
2022-11-16T14:23:48.447Z,94460.88
2022-11-16T14:26:52.439Z,94470.88
2022-11-16T14:29:40.379Z,94472.47
2022-11-16T14:32:20.882Z,94466.94
2022-11-16T14:34:50.348Z,94462.38
2022-11-16T14:37:40.307Z,94461.91
2022-11-16T14:40:08.478Z,94454.78
2022-11-16T14:43:14.981Z,94457.22
2022-11-16T14:45:38.501Z,94456.25
2022-11-16T14:48:22.692Z,94454.19
2022-11-16T14:51:03.591Z,94459.84
2022-11-16T14:53:31.916Z,94449.72
2022-11-16T14:56:10.717Z,94449.06
2022-11-16T14:58:38.010Z,94445.50
2022-11-16T15:01:13.852Z,94449.66
2022-11-16T15:03:48.491Z,94449.25
2022-11-16T15:06:16.377Z,94445.78
2022-11-16T15:08:48.537Z,94442.78
2022-11-16T15:11:51.451Z,94440.47
2022-11-16T15:14:22.178Z,94437.97
2022-11-16T15:16:53.877Z,94444.97
2022-11-16T15:19:21.420Z,94448.38
2022-11-16T15:21:59.593Z,94446.88
2022-11-16T15:24:34.644Z,94443.06
2022-11-16T15:27:30.376Z,94453.22
2022-11-16T15:29:57.003Z,94439.81
2022-11-16T15:32:23.672Z,94433.22
2022-11-16T15:34:53.474Z,94428.28
2022-11-16T15:37:27.985Z,94424.91
2022-11-16T15:39:56.356Z,94422.25
2022-11-16T15:42:25.622Z,94431.69
2022-11-16T15:44:52.999Z,94418.25
2022-11-16T15:47:21.584Z,94435.25
2022-11-16T15:49:52.850Z,94437.84
2022-11-16T15:52:43.656Z,94427.69
2022-11-16T15:55:28.919Z,94414.94
2022-11-16T15:58:25.669Z,94418.41
2022-11-16T16:00:53.530Z,94419.34
2022-11-16T16:03:26.257Z,94421.72
2022-11-16T16:05:53.724Z,94421.59
2022-11-16T16:08:26.303Z,94411.94
2022-11-16T16:11:12.427Z,94407.91
2022-11-16T16:13:41.892Z,94403.59
2022-11-16T16:16:37.393Z,94411.03
2022-11-16T16:19:44.231Z,94417.69
2022-11-16T16:22:23.561Z,94413.78
2022-11-16T16:24:50.154Z,94408.31
2022-11-16T16:27:23.416Z,94404.25
2022-11-16T16:29:52.223Z,94404.53
2022-11-16T16:32:26.022Z,94406.22
2022-11-16T16:34:54.218Z,94405.06
2022-11-16T16:37:21.068Z,94408.75
2022-11-16T16:39:47.926Z,94404.66
2022-11-16T16:42:16.598Z,94410.72
2022-11-16T16:44:44.789Z,94410.03
2022-11-16T16:47:11.918Z,94415.72
2022-11-16T16:49:38.624Z,94405.31
2022-11-16T16:52:06.554Z,94398.03
2022-11-16T16:54:33.720Z,94389.69
2022-11-16T16:57:02.322Z,94388.75
2022-11-16T16:59:32.294Z,94377.44
2022-11-16T17:01:59.781Z,94383.91
2022-11-16T17:04:26.610Z,94389.00
2022-11-16T17:06:53.957Z,94386.47
2022-11-16T17:09:20.787Z,94388.22
2022-11-16T17:11:47.726Z,94391.34
2022-11-16T17:14:14.451Z,94385.50
2022-11-16T17:16:41.121Z,94386.19
2022-11-16T17:19:07.781Z,94386.19
2022-11-16T17:21:34.393Z,94380.97
2022-11-16T17:24:01.008Z,94392.91
2022-11-16T17:26:29.538Z,94394.44
2022-11-16T17:28:57.404Z,94385.25
2022-11-16T17:31:25.346Z,94380.91
2022-11-16T17:33:52.353Z,94378.13
2022-11-16T17:36:19.336Z,94378.41
2022-11-16T17:38:46.633Z,94372.50
2022-11-16T17:41:19.064Z,94369.91
2022-11-16T17:43:46.670Z,94357.25
2022-11-16T17:46:18.728Z,94355.81
2022-11-16T17:48:47.073Z,94360.63
2022-11-16T17:51:16.552Z,94349.22
2022-11-16T17:53:46.483Z,94345.09
2022-11-16T17:56:16.073Z,94347.72
2022-11-16T17:58:42.853Z,94353.41
2022-11-16T18:01:09.531Z,94340.53
2022-11-16T18:03:36.739Z,94338.78
2022-11-16T18:06:13.414Z,94336.81
2022-11-16T18:08:41.037Z,94334.81
2022-11-16T18:11:10.210Z,94333.31
2022-11-16T18:13:37.594Z,94327.19
2022-11-16T18:16:09.889Z,94324.78
2022-11-16T18:18:37.811Z,94312.19
2022-11-16T18:21:05.480Z,94309.31
2022-11-16T18:23:33.840Z,94314.16
2022-11-16T18:26:03.071Z,94311.56
2022-11-16T18:28:30.245Z,94298.91
2022-11-16T18:31:09.612Z,94284.63
2022-11-16T18:33:37.636Z,94279.72
2022-11-16T18:36:05.909Z,94269.00
2022-11-16T18:38:32.981Z,94249.75
2022-11-16T18:41:12.794Z,94269.84
2022-11-16T18:43:49.699Z,94262.78
2022-11-16T18:46:31.226Z,94264.84
2022-11-16T18:48:58.867Z,94244.28
2022-11-16T18:51:27.276Z,94244.06
2022-11-16T18:53:54.522Z,94241.25
2022-11-16T18:56:21.458Z,94243.56
2022-11-16T18:58:51.247Z,94249.94
2022-11-16T19:01:21.803Z,94242.91
2022-11-16T19:03:48.773Z,94243.69
2022-11-16T19:06:17.120Z,94243.50
2022-11-16T19:08:46.895Z,94240.16
2022-11-16T19:11:17.116Z,94243.56
2022-11-16T19:13:44.618Z,94237.94
2022-11-16T19:16:13.457Z,94239.97
2022-11-16T19:18:40.481Z,94241.59
2022-11-16T19:21:09.877Z,94244.94
2022-11-16T19:23:41.083Z,94237.91
2022-11-16T19:26:07.778Z,94243.13
2022-11-16T19:28:38.919Z,94245.19
2022-11-16T19:31:08.515Z,94240.91
2022-11-16T19:33:35.779Z,94243.91
2022-11-16T19:36:20.843Z,94257.31
2022-11-16T19:38:48.176Z,94256.03
2022-11-16T19:41:16.914Z,94266.19
2022-11-16T19:43:43.773Z,94273.34
2022-11-16T19:46:12.659Z,94273.84
2022-11-16T19:48:39.824Z,94279.72
2022-11-16T19:51:11.850Z,94286.38
2022-11-16T19:53:39.461Z,94287.53
2022-11-16T19:56:07.249Z,94287.81
2022-11-16T19:58:38.360Z,94288.38
2022-11-16T20:01:07.152Z,94283.66
2022-11-16T20:03:34.483Z,94281.47
2022-11-16T20:06:12.694Z,94264.72
2022-11-16T20:08:40.934Z,94248.13
2022-11-16T20:11:15.606Z,94240.44
2022-11-16T20:13:42.628Z,94232.97
2022-11-16T20:16:11.374Z,94225.84
2022-11-16T20:18:39.361Z,94212.13
2022-11-16T20:21:07.634Z,94207.41
2022-11-16T20:23:35.012Z,94205.09
2022-11-16T20:26:09.739Z,94208.13
2022-11-16T20:28:38.318Z,94201.69
2022-11-16T20:31:13.015Z,94211.53
2022-11-16T20:33:39.981Z,94211.69
2022-11-16T20:36:09.256Z,94208.66
2022-11-16T20:38:37.442Z,94214.69
2022-11-16T20:41:18.372Z,94226.50
2022-11-16T20:43:46.397Z,94232.19
2022-11-16T20:46:15.187Z,94230.84
2022-11-16T20:48:42.804Z,94229.50
2022-11-16T20:51:11.721Z,94219.84
2022-11-16T20:53:38.717Z,94206.84
2022-11-16T20:56:05.959Z,94203.19
2022-11-16T20:58:33.245Z,94196.63
2022-11-16T21:01:14.397Z,94185.84
2022-11-16T21:03:42.456Z,94189.75
2022-11-16T21:06:09.075Z,94188.91
2022-11-16T21:08:36.758Z,94181.88
2022-11-16T21:11:12.869Z,94187.41
2022-11-16T21:13:58.144Z,94184.75
2022-11-16T21:16:24.870Z,94193.78
2022-11-16T21:18:51.538Z,94180.38
2022-11-16T21:21:18.194Z,94186.25
2022-11-16T21:23:51.240Z,94177.22
2022-11-16T21:26:24.108Z,94171.47
2022-11-16T21:28:51.509Z,94162.44
2022-11-16T21:31:20.794Z,94165.72
2022-11-16T21:33:48.023Z,94166.34
2022-11-16T21:36:16.879Z,94166.28
2022-11-16T21:38:44.358Z,94175.44
2022-11-16T21:41:13.274Z,94179.22
2022-11-16T21:43:42.738Z,94184.38
2022-11-16T21:46:24.771Z,94184.53
2022-11-16T21:48:52.819Z,94176.56
2022-11-16T21:51:21.484Z,94179.72
2022-11-16T21:53:48.634Z,94171.47
2022-11-16T21:56:17.614Z,94175.91
2022-11-16T21:58:45.108Z,94170.88
2022-11-16T22:01:13.267Z,94169.59
2022-11-16T22:03:40.001Z,94158.72
2022-11-16T22:06:26.708Z,94166.44
2022-11-16T22:08:53.402Z,94159.03
2022-11-16T22:11:22.213Z,94161.91
2022-11-16T22:13:50.192Z,94149.91
2022-11-16T22:16:18.853Z,94144.44
2022-11-16T22:18:45.492Z,94148.22
2022-11-16T22:21:12.294Z,94145.56
2022-11-16T22:23:39.570Z,94141.03
2022-11-16T22:26:07.630Z,94144.72
2022-11-16T22:28:35.436Z,94143.13
2022-11-16T22:31:06.693Z,94141.25
2022-11-16T22:33:34.573Z,94149.97
2022-11-16T22:36:01.875Z,94146.50
2022-11-16T22:38:28.652Z,94137.69
2022-11-16T22:40:56.918Z,94136.91
2022-11-16T22:43:26.554Z,94120.75
2022-11-16T22:46:00.223Z,94121.25
2022-11-16T22:48:35.480Z,94121.69
2022-11-16T22:51:28.959Z,94135.16
2022-11-16T22:54:03.793Z,94140.69
2022-11-16T22:56:32.329Z,94133.81
2022-11-16T22:59:00.709Z,94131.22
2022-11-16T23:01:27.366Z,94140.94
2022-11-16T23:03:54.095Z,94128.00
2022-11-16T23:06:20.863Z,94127.53
2022-11-16T23:08:47.773Z,94125.66
2022-11-16T23:11:35.546Z,94119.38
2022-11-16T23:14:21.197Z,94120.66
2022-11-16T23:16:47.992Z,94125.47
2022-11-16T23:19:36.039Z,94108.41
2022-11-16T23:22:22.326Z,94108.31
2022-11-16T23:25:07.450Z,94091.69
2022-11-16T23:27:42.587Z,94074.59
2022-11-16T23:30:12.698Z,94070.75
2022-11-16T23:32:40.494Z,94073.84
2022-11-16T23:35:07.717Z,94075.44
2022-11-16T23:37:34.646Z,94062.91
2022-11-16T23:40:01.222Z,94065.84
2022-11-16T23:43:00.068Z,94068.34
2022-11-16T23:45:26.655Z,94075.03
2022-11-16T23:47:53.270Z,94069.94
2022-11-16T23:50:19.832Z,94062.88
2022-11-16T23:52:46.804Z,94064.16
2022-11-16T23:55:13.408Z,94064.00
2022-11-16T23:57:40.044Z,94070.59
